Terminal Aerodrome Forecast
Issued by NWS Paducah, KY

Home | Current Version | Previous Version | Text Only | Print | Product List | Glossary On
Versions: 1 2 3 4 5 6 7 8 9 10 11 12 13 14 15 16 17 18 19 20
446
FTUS43 KPAH 301611 AAC
TAFEVV
TAF AMD
KEVV 301611Z 3016/0112 12010KT P6SM BKN004
      TEMPO 3016/3018 SCT004 OVC008
     FM301800 15008G18KT P6SM SCT015 BKN030
     FM010000 18006KT P6SM SCT050 BKN150 PROB30 0102/0108 4SM TSRA
      BKN035CB
     FM010800 20003KT 4SM BR BKN006=

USA.gov is the U.S. government's official web portal to all federal, state and local government web resources and services.